createdAt,value
2023-01-10T00:00:32.194Z,98965.69
2023-01-10T00:02:59.059Z,98971.50
2023-01-10T00:05:25.562Z,98964.59
2023-01-10T00:07:52.151Z,98971.50
2023-01-10T00:10:19.005Z,98961.97
2023-01-10T00:13:04.292Z,98970.25
2023-01-10T00:15:35.270Z,98969.88
2023-01-10T00:18:02.200Z,98971.94
2023-01-10T00:20:28.714Z,98986.25
2023-01-10T00:22:55.150Z,98982.06
2023-01-10T00:25:21.766Z,98995.34
2023-01-10T00:28:07.591Z,98998.00
2023-01-10T00:30:35.174Z,99004.25
2023-01-10T00:33:02.073Z,99013.69
2023-01-10T00:35:28.745Z,99010.78
2023-01-10T00:38:01.321Z,99009.81
2023-01-10T00:40:27.815Z,99008.97
2023-01-10T00:43:12.921Z,99015.63
2023-01-10T00:45:39.377Z,99023.53
2023-01-10T00:48:06.015Z,99030.91
2023-01-10T00:50:32.536Z,99025.47
2023-01-10T00:52:59.241Z,99027.97
2023-01-10T00:55:25.883Z,99033.09
2023-01-10T00:57:52.380Z,99032.94
2023-01-10T01:00:19.126Z,99037.00
2023-01-10T01:02:46.056Z,99044.31
2023-01-10T01:05:12.531Z,99046.41
2023-01-10T01:07:39.010Z,99044.19
2023-01-10T01:10:24.303Z,99045.16
2023-01-10T01:12:51.003Z,99046.94
2023-01-10T01:15:17.521Z,99050.00
2023-01-10T01:17:44.073Z,99061.50
2023-01-10T01:20:11.104Z,99056.38
2023-01-10T01:22:37.676Z,99057.91
2023-01-10T01:25:05.145Z,99053.75
2023-01-10T01:27:32.069Z,99061.94
2023-01-10T01:29:58.693Z,99063.47
2023-01-10T01:32:25.147Z,99065.16
2023-01-10T01:34:51.742Z,99070.25
2023-01-10T01:37:19.973Z,99077.22
2023-01-10T01:39:49.333Z,99077.22
2023-01-10T01:42:27.379Z,99079.97
2023-01-10T01:45:09.138Z,99077.22
2023-01-10T01:47:48.955Z,99078.03
2023-01-10T01:50:23.104Z,99089.09
2023-01-10T01:52:53.464Z,99089.78
2023-01-10T01:55:20.629Z,99086.03
2023-01-10T01:57:47.917Z,99087.16
2023-01-10T02:00:14.823Z,99088.25
2023-01-10T02:03:01.260Z,99088.56
2023-01-10T02:05:30.128Z,99090.19
2023-01-10T02:07:57.793Z,99093.56
2023-01-10T02:10:26.936Z,99092.59
2023-01-10T02:12:54.854Z,99102.41
2023-01-10T02:15:21.793Z,99106.59
2023-01-10T02:17:49.330Z,99099.94
2023-01-10T02:20:16.636Z,99115.19
2023-01-10T02:23:04.527Z,99113.50
2023-01-10T02:26:05.146Z,99109.94
2023-01-10T02:28:37.539Z,99123.63
2023-01-10T02:31:38.179Z,99117.25
2023-01-10T02:34:52.506Z,99118.78
2023-01-10T02:37:21.939Z,99118.63
2023-01-10T02:39:54.220Z,99117.41
2023-01-10T02:42:43.026Z,99123.66
2023-01-10T02:45:13.709Z,99130.03
2023-01-10T02:47:41.650Z,99129.91
2023-01-10T02:50:36.277Z,99124.06
2023-01-10T02:53:06.281Z,99127.41
2023-01-10T02:55:58.781Z,99114.34
2023-01-10T02:59:06.532Z,99131.00
2023-01-10T03:01:51.667Z,99126.84
2023-01-10T03:04:27.200Z,99135.88
2023-01-10T03:07:03.128Z,99133.25
2023-01-10T03:09:36.076Z,99136.13
2023-01-10T03:12:19.133Z,99139.34
2023-01-10T03:14:47.936Z,99131.97
2023-01-10T03:17:16.035Z,99145.84
2023-01-10T03:19:49.976Z,99142.66
2023-01-10T03:22:17.451Z,99137.66
2023-01-10T03:24:47.843Z,99136.97
2023-01-10T03:27:24.659Z,99142.66
2023-01-10T03:29:51.033Z,99149.03
2023-01-10T03:32:21.490Z,99143.78
2023-01-10T03:34:48.034Z,99147.38
2023-01-10T03:37:22.232Z,99145.84
2023-01-10T03:40:15.199Z,99150.13
2023-01-10T03:43:06.876Z,99160.66
2023-01-10T03:45:44.408Z,99159.59
2023-01-10T03:48:12.333Z,99162.63
2023-01-10T03:50:40.399Z,99162.88
2023-01-10T03:53:06.993Z,99165.25
2023-01-10T03:55:35.064Z,99173.28
2023-01-10T03:58:01.615Z,99166.22
2023-01-10T04:00:28.190Z,99180.09
2023-01-10T04:02:55.697Z,99178.44
2023-01-10T04:05:22.172Z,99180.38
2023-01-10T04:07:49.167Z,99185.94
2023-01-10T04:10:16.091Z,99189.53
2023-01-10T04:12:42.728Z,99192.31
2023-01-10T04:15:09.768Z,99203.41
2023-01-10T04:17:36.322Z,99205.91
2023-01-10T04:20:02.858Z,99212.28
2023-01-10T04:22:29.408Z,99212.13
2023-01-10T04:24:55.867Z,99219.50
2023-01-10T04:27:22.377Z,99215.88
2023-01-10T04:29:48.853Z,99220.31
2023-01-10T04:32:15.401Z,99228.09
2023-01-10T04:34:41.865Z,99234.47
2023-01-10T04:37:08.446Z,99242.38
2023-01-10T04:39:35.083Z,99237.13
2023-01-10T04:42:01.580Z,99238.91
2023-01-10T04:44:28.041Z,99244.44
2023-01-10T04:46:54.500Z,99242.34
2023-01-10T04:49:21.182Z,99255.28
2023-01-10T04:51:47.659Z,99259.03
2023-01-10T04:54:14.249Z,99267.75
2023-01-10T04:56:40.686Z,99270.50
2023-01-10T04:59:07.123Z,99272.19
2023-01-10T05:01:35.432Z,99274.94
2023-01-10T05:04:03.247Z,99282.72
2023-01-10T05:06:29.785Z,99285.22
2023-01-10T05:08:56.443Z,99286.63
2023-01-10T05:11:23.114Z,99291.47
2023-01-10T05:13:50.085Z,99288.13
2023-01-10T05:16:17.163Z,99303.25
2023-01-10T05:18:43.736Z,99302.72
2023-01-10T05:21:11.780Z,99309.50
2023-01-10T05:23:38.920Z,99306.03
2023-01-10T05:26:16.889Z,99313.25
2023-01-10T05:28:43.532Z,99312.53
2023-01-10T05:31:12.517Z,99324.63
2023-01-10T05:33:39.657Z,99333.22
2023-01-10T05:36:07.088Z,99338.22
2023-01-10T05:38:33.978Z,99343.22
2023-01-10T05:41:00.927Z,99349.88
2023-01-10T05:43:27.918Z,99351.56
2023-01-10T05:45:54.540Z,99356.84
2023-01-10T05:48:21.137Z,99368.50
2023-01-10T05:50:49.617Z,99374.31
2023-01-10T05:53:16.188Z,99376.53
2023-01-10T05:55:42.739Z,99381.78
2023-01-10T05:58:11.129Z,99384.44
2023-01-10T06:00:39.731Z,99390.66
2023-01-10T06:03:06.973Z,99389.56
2023-01-10T06:05:33.496Z,99393.16
2023-01-10T06:07:59.975Z,99406.47
2023-01-10T06:10:27.264Z,99409.81
2023-01-10T06:12:54.011Z,99409.81
2023-01-10T06:15:20.477Z,99413.53
2023-01-10T06:17:46.999Z,99415.63
2023-01-10T06:20:14.769Z,99417.44
2023-01-10T06:22:42.425Z,99419.75
2023-01-10T06:25:10.705Z,99421.53
2023-01-10T06:27:42.291Z,99433.88
2023-01-10T06:30:11.139Z,99436.53
2023-01-10T06:32:37.791Z,99441.41
2023-01-10T06:35:05.031Z,99443.88
2023-01-10T06:37:31.540Z,99449.97
2023-01-10T06:39:58.115Z,99462.16
2023-01-10T06:42:24.787Z,99467.44
2023-01-10T06:44:51.334Z,99469.94
2023-01-10T06:47:17.893Z,99470.59
2023-01-10T06:49:44.561Z,99474.91
2023-01-10T06:52:11.292Z,99475.59
2023-01-10T06:54:37.761Z,99478.69
2023-01-10T06:57:04.798Z,99484.66
2023-01-10T06:59:31.415Z,99492.69
2023-01-10T07:01:57.951Z,99485.16
2023-01-10T07:04:24.545Z,99484.50
2023-01-10T07:06:51.052Z,99480.75
2023-01-10T07:09:17.670Z,99487.13
2023-01-10T07:11:44.225Z,99492.53
2023-01-10T07:14:10.769Z,99496.69
2023-01-10T07:16:37.288Z,99497.53
2023-01-10T07:19:03.814Z,99501.25
2023-01-10T07:21:30.330Z,99503.75
2023-01-10T07:23:56.782Z,99504.16
2023-01-10T07:26:24.285Z,99507.06
2023-01-10T07:28:53.889Z,99503.94
2023-01-10T07:31:22.918Z,99503.84
2023-01-10T07:33:51.107Z,99513.53
2023-01-10T07:36:17.851Z,99517.28
2023-01-10T07:38:44.460Z,99511.13
2023-01-10T07:41:11.018Z,99520.63
2023-01-10T07:43:37.595Z,99515.34
2023-01-10T07:46:12.082Z,99523.09
2023-01-10T07:48:41.385Z,99521.78
2023-01-10T07:51:07.930Z,99525.63
2023-01-10T07:53:34.415Z,99527.97
2023-01-10T07:56:02.559Z,99526.72
2023-01-10T07:58:29.594Z,99522.38
2023-01-10T08:00:59.819Z,99532.53
2023-01-10T08:03:27.009Z,99529.34
2023-01-10T08:06:07.574Z,99544.19
2023-01-10T08:08:34.820Z,99549.44
2023-01-10T08:11:02.732Z,99549.44
2023-01-10T08:13:29.811Z,99551.25
2023-01-10T08:15:56.670Z,99551.50
2023-01-10T08:18:24.190Z,99559.66
2023-01-10T08:20:53.778Z,99561.34
2023-01-10T08:23:21.047Z,99568.66
2023-01-10T08:25:48.071Z,99563.81
2023-01-10T08:28:14.706Z,99566.47
2023-01-10T08:30:41.282Z,99571.06
2023-01-10T08:33:08.747Z,99570.34
2023-01-10T08:35:42.984Z,99575.59
2023-01-10T08:38:10.862Z,99580.34
2023-01-10T08:40:37.692Z,99579.63
2023-01-10T08:43:10.326Z,99585.50
2023-01-10T08:45:37.504Z,99588.84
2023-01-10T08:48:05.056Z,99589.69
2023-01-10T08:50:31.616Z,99595.91
2023-01-10T08:52:59.484Z,99597.38
2023-01-10T08:55:26.845Z,99601.81
2023-01-10T08:57:53.371Z,99608.13
2023-01-10T09:00:23.277Z,99617.22
2023-01-10T09:02:49.962Z,99624.03
2023-01-10T09:05:26.993Z,99626.56
2023-01-10T09:08:00.324Z,99625.66
2023-01-10T09:10:28.398Z,99619.88
2023-01-10T09:12:54.896Z,99623.66
2023-01-10T09:15:22.853Z,99625.84
2023-01-10T09:17:52.128Z,99624.19
2023-01-10T09:20:20.139Z,99634.28
2023-01-10T09:22:46.779Z,99630.66
2023-01-10T09:25:13.318Z,99636.66
2023-01-10T09:27:39.903Z,99637.34
2023-01-10T09:30:06.861Z,99641.53
2023-01-10T09:32:33.405Z,99641.09
2023-01-10T09:34:59.883Z,99633.75
2023-01-10T09:37:26.388Z,99640.19
2023-01-10T09:39:52.935Z,99633.53
2023-01-10T09:42:28.386Z,99638.59
2023-01-10T09:45:22.452Z,99638.00
2023-01-10T09:47:52.031Z,99642.59
2023-01-10T09:50:36.135Z,99638.34
2023-01-10T09:53:09.334Z,99639.75
2023-01-10T09:55:37.085Z,99631.22
2023-01-10T09:58:17.992Z,99636.38
2023-01-10T10:00:49.209Z,99636.69
2023-01-10T10:03:33.157Z,99629.72
2023-01-10T10:06:11.301Z,99632.38
2023-01-10T10:08:42.221Z,99634.94
2023-01-10T10:11:26.545Z,99640.81
2023-01-10T10:14:25.175Z,99644.38
2023-01-10T10:17:07.002Z,99651.03
2023-01-10T10:19:45.284Z,99653.22
2023-01-10T10:22:19.748Z,99653.78
2023-01-10T10:25:09.196Z,99648.50
2023-01-10T10:27:41.599Z,99651.34
2023-01-10T10:30:19.872Z,99649.34
2023-01-10T10:33:05.618Z,99652.44
2023-01-10T10:35:44.954Z,99653.41
2023-01-10T10:38:36.442Z,99652.44
2023-01-10T10:41:03.406Z,99660.16
2023-01-10T10:43:35.913Z,99666.09
2023-01-10T10:46:06.010Z,99668.91
2023-01-10T10:48:37.018Z,99657.56
2023-01-10T10:51:21.706Z,99662.34
2023-01-10T10:53:48.363Z,99665.69
2023-01-10T10:56:18.698Z,99678.44
2023-01-10T10:58:48.812Z,99675.47
2023-01-10T11:01:16.487Z,99678.81
2023-01-10T11:03:47.684Z,99680.88
2023-01-10T11:06:15.297Z,99678.13
2023-01-10T11:08:44.784Z,99671.78
2023-01-10T11:11:25.700Z,99671.63
2023-01-10T11:13:56.321Z,99671.69
2023-01-10T11:16:34.303Z,99682.63
2023-01-10T11:19:27.418Z,99682.34
2023-01-10T11:22:00.733Z,99688.50
2023-01-10T11:24:31.346Z,99695.16
2023-01-10T11:27:00.417Z,99703.31
2023-01-10T11:29:37.967Z,99711.47
2023-01-10T11:32:15.146Z,99710.66
2023-01-10T11:35:02.836Z,99717.84
2023-01-10T11:37:32.660Z,99726.84
2023-01-10T11:40:25.777Z,99736.31
2023-01-10T11:42:59.173Z,99732.06
2023-01-10T11:45:31.513Z,99730.09
2023-01-10T11:48:22.957Z,99734.38
2023-01-10T11:50:55.592Z,99733.22
2023-01-10T11:53:41.158Z,99737.78
2023-01-10T11:56:11.603Z,99730.69
2023-01-10T11:58:38.494Z,99731.66
2023-01-10T12:01:05.287Z,99741.25
2023-01-10T12:03:37.384Z,99740.63
2023-01-10T12:06:09.933Z,99745.19
2023-01-10T12:08:39.057Z,99746.91
2023-01-10T12:11:28.253Z,99750.28
2023-01-10T12:13:57.881Z,99755.53
2023-01-10T12:16:34.895Z,99762.50
2023-01-10T12:19:04.778Z,99765.38
2023-01-10T12:21:42.403Z,99775.69
2023-01-10T12:24:39.158Z,99777.75
2023-01-10T12:27:06.352Z,99782.00
2023-01-10T12:29:41.302Z,99785.41
2023-01-10T12:32:18.168Z,99785.53
2023-01-10T12:34:49.727Z,99794.72
2023-01-10T12:37:23.458Z,99799.44
2023-01-10T12:40:10.646Z,99797.25
2023-01-10T12:43:08.458Z,99803.09
2023-01-10T12:45:40.743Z,99809.34
2023-01-10T12:48:15.412Z,99810.91
2023-01-10T12:50:45.479Z,99800.59
2023-01-10T12:53:53.244Z,99811.22
2023-01-10T12:56:20.811Z,99816.63
2023-01-10T12:58:51.413Z,99818.53
2023-01-10T13:01:40.629Z,99825.81
2023-01-10T13:04:10.586Z,99819.72
2023-01-10T13:06:41.239Z,99824.72
2023-01-10T13:09:11.799Z,99824.19
2023-01-10T13:11:46.324Z,99837.88
2023-01-10T13:14:15.330Z,99849.81
2023-01-10T13:17:08.310Z,99855.84
2023-01-10T13:19:34.842Z,99849.91
2023-01-10T13:22:19.112Z,99854.47
2023-01-10T13:24:56.797Z,99854.09
2023-01-10T13:27:24.085Z,99857.13
2023-01-10T13:29:51.204Z,99865.88
2023-01-10T13:32:27.872Z,99871.06
2023-01-10T13:34:55.514Z,99882.31
2023-01-10T13:37:28.166Z,99884.22
2023-01-10T13:40:01.654Z,99889.25
2023-01-10T13:42:56.482Z,99894.53
2023-01-10T13:45:23.383Z,99897.44
2023-01-10T13:47:56.179Z,99892.75
2023-01-10T13:50:22.847Z,99893.59
2023-01-10T13:53:12.674Z,99887.13
2023-01-10T13:55:39.292Z,99898.50
2023-01-10T13:58:15.590Z,99902.34
2023-01-10T14:01:07.527Z,99902.97
2023-01-10T14:03:50.371Z,99911.81
2023-01-10T14:06:29.620Z,99916.03
2023-01-10T14:09:06.478Z,99920.22
2023-01-10T14:11:51.602Z,99913.97
2023-01-10T14:14:38.175Z,99925.13
2023-01-10T14:17:27.661Z,99923.69
2023-01-10T14:20:03.005Z,99929.69
2023-01-10T14:22:34.518Z,99935.06
2023-01-10T14:25:04.976Z,99936.97
2023-01-10T14:27:46.472Z,99935.06
2023-01-10T14:30:38.639Z,99934.47
2023-01-10T14:33:22.865Z,99928.84
2023-01-10T14:36:00.301Z,99943.94
2023-01-10T14:38:29.667Z,99942.50
2023-01-10T14:41:02.167Z,99946.09
2023-01-10T14:43:37.723Z,99936.16
2023-01-10T14:46:11.176Z,99937.00
2023-01-10T14:48:45.931Z,99951.09
2023-01-10T14:51:25.285Z,99950.53
2023-01-10T14:54:02.941Z,99948.00
2023-01-10T14:56:39.702Z,99942.25
2023-01-10T14:59:20.548Z,99952.31
2023-01-10T15:01:49.478Z,99947.50
2023-01-10T15:04:17.606Z,99949.53
2023-01-10T15:06:58.736Z,99949.03
2023-01-10T15:09:25.968Z,99957.53
2023-01-10T15:11:53.695Z,99961.72
2023-01-10T15:14:23.444Z,99956.78
2023-01-10T15:16:51.998Z,99955.47
2023-01-10T15:19:20.930Z,99954.63
2023-01-10T15:21:47.797Z,99951.03
2023-01-10T15:24:42.634Z,99961.19
2023-01-10T15:27:14.481Z,99966.69
2023-01-10T15:29:46.912Z,99975.19
2023-01-10T15:32:22.311Z,99983.78
2023-01-10T15:34:50.303Z,99976.09
2023-01-10T15:37:22.767Z,99978.25
2023-01-10T15:39:49.315Z,99978.25
2023-01-10T15:42:22.460Z,99978.34
2023-01-10T15:44:52.961Z,99973.66
2023-01-10T15:47:36.055Z,99992.53
2023-01-10T15:50:18.008Z,99999.97
2023-01-10T15:52:55.175Z,100007.63
2023-01-10T15:55:45.292Z,100010.25
2023-01-10T15:58:22.983Z,100014.88
2023-01-10T16:00:52.273Z,100012.34
2023-01-10T16:03:29.487Z,100012.56
2023-01-10T16:05:59.107Z,100013.00
2023-01-10T16:08:28.506Z,100010.38
2023-01-10T16:10:59.705Z,100023.19
2023-01-10T16:15:27.838Z,100028.78
2023-01-10T16:17:54.739Z,100021.13
2023-01-10T16:20:27.721Z,100017.66
2023-01-10T16:22:55.939Z,100027.13
2023-01-10T16:25:27.830Z,100026.13
2023-01-10T16:27:56.413Z,100032.81
2023-01-10T16:30:23.701Z,100024.91
2023-01-10T16:32:50.324Z,100036.41
2023-01-10T16:35:18.507Z,100033.13
2023-01-10T16:37:46.324Z,100034.84
2023-01-10T16:40:21.971Z,100027.78
2023-01-10T16:43:06.875Z,100035.38
2023-01-10T16:45:33.788Z,100026.75
2023-01-10T16:48:01.388Z,100026.97
2023-01-10T16:50:28.070Z,100026.63
2023-01-10T16:52:54.800Z,100025.06
2023-01-10T16:55:23.951Z,100017.81
2023-01-10T16:57:51.673Z,100027.19
2023-01-10T17:00:20.215Z,100032.44
2023-01-10T17:02:46.755Z,100025.53
2023-01-10T17:05:16.294Z,100033.94
2023-01-10T17:07:43.103Z,100033.31
2023-01-10T17:10:10.191Z,100044.78
2023-01-10T17:12:37.941Z,100043.00
2023-01-10T17:15:05.855Z,100051.91
2023-01-10T17:17:33.143Z,100074.13
2023-01-10T17:19:59.884Z,100077.91
2023-01-10T17:22:26.617Z,100086.63
2023-01-10T17:24:53.189Z,100080.22
2023-01-10T17:27:22.796Z,100090.03
2023-01-10T17:29:49.489Z,100086.53
2023-01-10T17:32:16.206Z,100082.34
2023-01-10T17:34:42.790Z,100078.31
2023-01-10T17:37:09.588Z,100077.41
2023-01-10T17:39:37.896Z,100080.56
2023-01-10T17:42:05.833Z,100091.69
2023-01-10T17:44:32.617Z,100094.53
2023-01-10T17:46:59.205Z,100092.84
2023-01-10T17:49:25.721Z,100103.34
2023-01-10T17:51:53.558Z,100098.31
2023-01-10T17:54:21.517Z,100095.28
2023-01-10T17:56:48.038Z,100102.72
2023-01-10T17:59:14.791Z,100114.38
2023-01-10T18:01:42.301Z,100109.47
2023-01-10T18:04:08.998Z,100117.00
2023-01-10T18:06:35.567Z,100132.06
2023-01-10T18:09:02.281Z,100134.69
2023-01-10T18:11:30.617Z,100127.44
2023-01-10T18:13:57.579Z,100131.34
2023-01-10T18:16:27.078Z,100121.66
2023-01-10T18:18:53.963Z,100128.19
2023-01-10T18:21:20.709Z,100124.81
2023-01-10T18:23:47.894Z,100128.19
2023-01-10T18:26:14.641Z,100132.56
2023-01-10T18:28:43.358Z,100131.63
2023-01-10T18:31:16.613Z,100141.19
2023-01-10T18:33:43.707Z,100143.81
2023-01-10T18:36:14.698Z,100154.63
2023-01-10T18:38:41.594Z,100165.22
2023-01-10T18:41:08.109Z,100165.88
2023-01-10T18:43:34.779Z,100155.56
2023-01-10T18:46:03.839Z,100164.94
2023-01-10T18:48:30.426Z,100165.31
2023-01-10T18:51:00.720Z,100168.91
2023-01-10T18:53:27.600Z,100177.00
2023-01-10T18:55:59.181Z,100177.75
2023-01-10T18:58:27.706Z,100181.09
2023-01-10T19:00:54.422Z,100180.47
2023-01-10T19:03:21.001Z,100187.22
2023-01-10T19:05:47.540Z,100185.06
2023-01-10T19:08:14.104Z,100186.56
2023-01-10T19:11:07.162Z,100187.69
2023-01-10T19:13:30.830Z,100191.81
2023-01-10T19:16:09.228Z,100191.19
2023-01-10T19:18:36.045Z,100190.53
2023-01-10T19:21:02.611Z,100190.97
2023-01-10T19:23:29.481Z,100194.53
2023-01-10T19:25:57.670Z,100188.25
2023-01-10T19:28:24.565Z,100188.66
2023-01-10T19:31:03.523Z,100186.09
2023-01-10T19:33:32.852Z,100190.81
2023-01-10T19:35:59.579Z,100189.53
2023-01-10T19:38:26.100Z,100202.66
2023-01-10T19:40:53.106Z,100193.75
2023-01-10T19:43:22.716Z,100200.34
2023-01-10T19:45:49.223Z,100196.59
2023-01-10T19:48:15.879Z,100213.09
2023-01-10T19:50:42.482Z,100218.94
2023-01-10T19:53:09.026Z,100215.75
2023-01-10T19:55:35.833Z,100223.19
2023-01-10T19:58:02.729Z,100218.50
2023-01-10T20:00:29.963Z,100218.88
2023-01-10T20:02:57.618Z,100221.53
2023-01-10T20:05:24.618Z,100212.81
2023-01-10T20:07:52.068Z,100205.59
2023-01-10T20:10:19.044Z,100198.13
2023-01-10T20:12:45.779Z,100201.69
2023-01-10T20:15:12.754Z,100202.91
2023-01-10T20:17:40.658Z,100203.75
2023-01-10T20:20:07.907Z,100213.28
2023-01-10T20:22:36.566Z,100224.34
2023-01-10T20:25:03.132Z,100212.00
2023-01-10T20:27:32.600Z,100221.72
2023-01-10T20:29:59.139Z,100222.47
2023-01-10T20:32:40.717Z,100222.88
2023-01-10T20:35:07.441Z,100226.03
2023-01-10T20:37:33.931Z,100224.47
2023-01-10T20:40:00.563Z,100222.66
2023-01-10T20:42:27.031Z,100231.28
2023-01-10T20:44:53.580Z,100230.34
2023-01-10T20:47:21.708Z,100227.16
2023-01-10T20:49:48.252Z,100229.50
2023-01-10T20:52:14.721Z,100233.91
2023-01-10T20:54:41.461Z,100229.31
2023-01-10T20:57:08.065Z,100238.75
2023-01-10T20:59:34.697Z,100238.94
2023-01-10T21:02:02.331Z,100230.09
2023-01-10T21:04:29.598Z,100237.41
2023-01-10T21:06:56.334Z,100235.91
2023-01-10T21:09:23.160Z,100241.16
2023-01-10T21:12:02.203Z,100235.16
2023-01-10T21:14:36.199Z,100237.03
2023-01-10T21:17:02.749Z,100233.81
2023-01-10T21:19:29.574Z,100247.28
2023-01-10T21:21:56.112Z,100242.81
2023-01-10T21:24:24.868Z,100241.31
2023-01-10T21:26:51.403Z,100240.47
2023-01-10T21:29:19.098Z,100251.06
2023-01-10T21:31:45.583Z,100250.50
2023-01-10T21:34:12.077Z,100246.09
2023-01-10T21:36:38.647Z,100250.16
2023-01-10T21:39:05.337Z,100247.19
2023-01-10T21:41:50.736Z,100245.78
2023-01-10T21:44:17.492Z,100252.44
2023-01-10T21:46:46.708Z,100256.56
2023-01-10T21:49:13.876Z,100252.75
2023-01-10T21:51:40.731Z,100255.53
2023-01-10T21:54:07.652Z,100254.63
2023-01-10T21:56:34.386Z,100263.25
2023-01-10T21:59:01.093Z,100256.31
2023-01-10T22:01:27.639Z,100270.63
2023-01-10T22:03:54.170Z,100275.66
2023-01-10T22:06:20.946Z,100271.47
2023-01-10T22:08:47.525Z,100270.03
2023-01-10T22:11:14.024Z,100275.81
2023-01-10T22:13:40.656Z,100268.53
2023-01-10T22:16:07.460Z,100270.69
2023-01-10T22:18:33.976Z,100275.19
2023-01-10T22:21:00.595Z,100261.91
2023-01-10T22:23:28.693Z,100267.50
2023-01-10T22:25:58.605Z,100267.00
2023-01-10T22:28:25.164Z,100267.69
2023-01-10T22:30:51.832Z,100268.03
2023-01-10T22:33:18.698Z,100268.34
2023-01-10T22:35:45.227Z,100259.72
2023-01-10T22:38:11.869Z,100261.50
2023-01-10T22:40:38.354Z,100260.41
2023-01-10T22:43:04.866Z,100260.78
2023-01-10T22:45:31.674Z,100264.84
2023-01-10T22:47:58.414Z,100269.38
2023-01-10T22:50:25.009Z,100268.16
2023-01-10T22:52:51.569Z,100266.56
2023-01-10T22:55:19.702Z,100281.38
2023-01-10T22:57:47.783Z,100289.31
2023-01-10T23:00:14.990Z,100278.06
2023-01-10T23:02:41.558Z,100286.28
2023-01-10T23:05:08.347Z,100296.66
2023-01-10T23:07:34.813Z,100293.88
2023-01-10T23:10:01.296Z,100285.91
2023-01-10T23:12:27.835Z,100286.09
2023-01-10T23:14:54.379Z,100286.03
2023-01-10T23:17:20.839Z,100285.91
2023-01-10T23:19:47.256Z,100292.50
2023-01-10T23:22:13.678Z,100293.00
2023-01-10T23:24:40.126Z,100302.28
2023-01-10T23:27:06.556Z,100293.56
2023-01-10T23:29:32.926Z,100300.25
2023-01-10T23:31:59.391Z,100293.50
2023-01-10T23:34:25.899Z,100292.47
2023-01-10T23:36:52.308Z,100293.78
2023-01-10T23:39:19.146Z,100283.88
2023-01-10T23:41:45.572Z,100285.78
2023-01-10T23:44:12.024Z,100284.09
2023-01-10T23:46:38.504Z,100292.22
2023-01-10T23:49:04.986Z,100295.16
2023-01-10T23:51:31.593Z,100302.25
2023-01-10T23:53:58.063Z,100305.81
2023-01-10T23:56:24.650Z,100297.47
2023-01-10T23:58:52.576Z,100298.16
